Tower City, North Dakota
Current Conditions -  °F | °C
As of 2:35 AM on Sunday 21 Dec 2014 (Local Time) from KBAC Reporting Station
Haze Haze  
Wind Chill: 16°   Ceiling: 200
Heat Index: 27°   Visibility: 1.7mi
Dew Point: 27°   Wind: 13mph
Humidity: 100%   Direction: 200°SSW
Pressure: 29.78"   Gusts: NA
Location:  46.92°N, 97.67°W
Report Text: KBAC 210835Z AUTO 20011KT 1 3/4SM BR OVC002 M03/M03 A2978 RMK AO2
Loading
Personal Weather Stations






























Interactive Weather Map New forecast layout! Learn more

10-Day Weather Forecast

Advertisements
Track Severe Weather on mobile